createdAt,value
2023-02-26T00:01:58.549Z,84.72
2023-02-26T00:04:27.986Z,84.96
2023-02-26T00:06:59.723Z,85.21
2023-02-26T00:09:28.783Z,85.64
2023-02-26T00:11:59.308Z,86.06
2023-02-26T00:14:29.179Z,86.11
2023-02-26T00:17:01.646Z,86.08
2023-02-26T00:19:31.443Z,85.99
2023-02-26T00:22:01.733Z,85.72
2023-02-26T00:24:31.366Z,85.66
2023-02-26T00:27:00.685Z,85.71
2023-02-26T00:29:30.933Z,85.98
2023-02-26T00:32:00.737Z,86.46
2023-02-26T00:34:30.463Z,86.49
2023-02-26T00:37:20.363Z,86.28
2023-02-26T00:39:58.873Z,86.86
2023-02-26T00:42:28.837Z,86.50
2023-02-26T00:44:58.694Z,86.52
2023-02-26T00:47:54.834Z,86.29
2023-02-26T00:50:25.946Z,86.47
2023-02-26T00:52:58.432Z,86.79
2023-02-26T00:55:29.439Z,86.45
2023-02-26T00:57:58.848Z,86.58
2023-02-26T01:00:28.571Z,86.56
2023-02-26T01:02:58.772Z,86.77
2023-02-26T01:05:28.344Z,87.21
2023-02-26T01:08:32.475Z,86.79
2023-02-26T01:11:02.202Z,86.69
2023-02-26T01:13:32.034Z,85.88
2023-02-26T01:16:04.914Z,86.05
2023-02-26T01:18:39.634Z,86.06
2023-02-26T01:21:11.728Z,85.85
2023-02-26T01:23:44.687Z,86.12
2023-02-26T01:26:20.711Z,86.18
2023-02-26T01:28:50.577Z,86.00
2023-02-26T01:31:46.122Z,86.01
2023-02-26T01:34:21.653Z,84.78
2023-02-26T01:36:57.444Z,84.13
2023-02-26T01:39:38.789Z,84.44
2023-02-26T01:42:14.185Z,84.61
2023-02-26T01:44:58.430Z,83.94
2023-02-26T01:47:36.339Z,82.68
2023-02-26T01:50:14.854Z,82.51
2023-02-26T01:52:53.548Z,81.66
2023-02-26T01:55:25.476Z,81.04
2023-02-26T01:57:57.062Z,81.44
2023-02-26T02:00:26.382Z,81.79
2023-02-26T02:02:55.798Z,81.36
2023-02-26T02:05:31.331Z,80.97
2023-02-26T02:08:01.612Z,81.63
2023-02-26T02:10:31.504Z,82.09
2023-02-26T02:13:19.101Z,82.35
2023-02-26T02:15:52.705Z,82.28
2023-02-26T02:18:40.211Z,82.19
2023-02-26T02:21:24.965Z,82.12
2023-02-26T02:24:17.251Z,81.56
2023-02-26T02:26:59.556Z,81.56
2023-02-26T02:29:34.617Z,82.35
2023-02-26T02:32:22.186Z,81.89
2023-02-26T02:34:54.469Z,82.03
2023-02-26T02:37:32.920Z,82.28
2023-02-26T02:40:05.395Z,83.30
2023-02-26T02:42:37.020Z,82.71
2023-02-26T02:45:10.887Z,82.31
2023-02-26T02:47:42.980Z,81.68
2023-02-26T02:50:24.292Z,81.47
2023-02-26T02:52:57.216Z,81.54
2023-02-26T02:55:29.906Z,81.68
2023-02-26T02:58:05.022Z,81.08
2023-02-26T03:00:36.349Z,81.32
2023-02-26T03:03:37.804Z,80.96
2023-02-26T03:06:07.873Z,80.95
2023-02-26T03:08:41.636Z,80.55
2023-02-26T03:11:11.336Z,80.70
2023-02-26T03:13:41.333Z,80.21
2023-02-26T03:16:21.660Z,80.07
2023-02-26T03:19:16.173Z,80.30
2023-02-26T03:22:05.479Z,81.11
2023-02-26T03:24:42.426Z,81.05
2023-02-26T03:27:15.048Z,80.36
2023-02-26T03:30:00.797Z,79.64
2023-02-26T03:32:50.558Z,79.91
2023-02-26T03:35:55.741Z,79.50
2023-02-26T03:38:28.350Z,79.79
2023-02-26T03:41:02.476Z,79.42
2023-02-26T03:43:36.226Z,78.75
2023-02-26T03:46:08.863Z,77.55
2023-02-26T03:48:38.559Z,77.87
2023-02-26T03:51:11.113Z,77.05
2023-02-26T03:54:00.308Z,77.81
2023-02-26T03:56:42.952Z,78.54
2023-02-26T03:59:14.937Z,78.19
2023-02-26T04:01:52.194Z,78.59
2023-02-26T04:04:34.390Z,77.83
2023-02-26T04:07:03.484Z,78.04
2023-02-26T04:09:33.075Z,78.61
2023-02-26T04:12:02.994Z,77.75
2023-02-26T04:14:32.216Z,78.23
2023-02-26T04:17:01.589Z,78.47
2023-02-26T04:19:31.007Z,78.74
2023-02-26T04:22:00.486Z,78.96
2023-02-26T04:24:30.010Z,78.99
2023-02-26T04:27:01.184Z,78.64
2023-02-26T04:29:32.453Z,78.69
2023-02-26T04:32:02.902Z,79.35
2023-02-26T04:34:32.677Z,78.99
2023-02-26T04:37:02.118Z,77.99
2023-02-26T04:39:32.096Z,77.93
2023-02-26T04:42:01.516Z,78.83
2023-02-26T04:44:31.361Z,79.28
2023-02-26T04:47:01.639Z,78.71
2023-02-26T04:49:31.505Z,77.47
2023-02-26T04:52:00.901Z,78.27
2023-02-26T04:54:30.541Z,77.72
2023-02-26T04:56:59.862Z,77.78
2023-02-26T04:59:29.543Z,77.28
2023-02-26T05:02:00.190Z,77.92
2023-02-26T05:04:29.728Z,77.41
2023-02-26T05:07:01.201Z,77.27
2023-02-26T05:09:30.522Z,77.98
2023-02-26T05:11:59.858Z,77.37
2023-02-26T05:14:29.163Z,77.83
2023-02-26T05:16:59.531Z,78.41
2023-02-26T05:19:29.362Z,78.27
2023-02-26T05:21:58.735Z,77.98
2023-02-26T05:24:28.022Z,79.23
2023-02-26T05:26:57.513Z,78.78
2023-02-26T05:29:26.822Z,78.08
2023-02-26T05:31:57.437Z,77.90
2023-02-26T05:34:26.916Z,78.34
2023-02-26T05:36:56.150Z,78.26
2023-02-26T05:39:25.394Z,77.63
2023-02-26T05:41:55.511Z,78.70
2023-02-26T05:44:25.419Z,77.63
2023-02-26T05:46:54.906Z,78.12
2023-02-26T05:49:24.197Z,77.19
2023-02-26T05:51:53.449Z,78.06
2023-02-26T05:54:22.731Z,77.41
2023-02-26T05:56:52.317Z,76.62
2023-02-26T05:59:21.874Z,76.53
2023-02-26T06:01:51.288Z,77.28
2023-02-26T06:04:21.265Z,76.85
2023-02-26T06:06:50.470Z,76.37
2023-02-26T06:09:19.735Z,76.81
2023-02-26T06:11:48.937Z,76.22
2023-02-26T06:14:18.579Z,76.72
2023-02-26T06:16:47.910Z,76.72
2023-02-26T06:19:17.473Z,76.00
2023-02-26T06:21:47.083Z,76.65
2023-02-26T06:24:16.862Z,75.58
2023-02-26T06:26:46.139Z,76.41
2023-02-26T06:29:15.435Z,76.27
2023-02-26T06:31:45.388Z,76.16
2023-02-26T06:34:15.129Z,75.44
2023-02-26T06:36:44.878Z,75.11
2023-02-26T06:39:14.783Z,75.36
2023-02-26T06:41:44.069Z,74.37
2023-02-26T06:44:13.450Z,74.02
2023-02-26T06:46:42.779Z,75.44
2023-02-26T06:49:12.172Z,74.56
2023-02-26T06:51:41.460Z,74.36
2023-02-26T06:54:11.098Z,73.28
2023-02-26T06:56:40.566Z,75.32
2023-02-26T06:59:09.920Z,74.59
2023-02-26T07:01:40.060Z,73.79
2023-02-26T07:04:09.452Z,74.02
2023-02-26T07:06:38.887Z,73.92
2023-02-26T07:09:08.327Z,73.43
2023-02-26T07:11:37.670Z,73.36
2023-02-26T07:14:07.096Z,72.91
2023-02-26T07:16:36.583Z,72.96
2023-02-26T07:19:05.849Z,73.02
2023-02-26T07:21:35.716Z,72.80
2023-02-26T07:24:05.614Z,70.19
2023-02-26T07:26:34.967Z,65.52
2023-02-26T07:29:04.744Z,64.87
2023-02-26T07:31:34.679Z,66.55
2023-02-26T07:34:04.482Z,68.32
2023-02-26T07:36:33.734Z,69.67
2023-02-26T07:39:03.150Z,69.29
2023-02-26T07:41:32.344Z,68.97
2023-02-26T07:44:01.664Z,68.32
2023-02-26T07:46:30.894Z,68.45
2023-02-26T07:49:00.729Z,68.15
2023-02-26T07:51:32.398Z,68.53
2023-02-26T07:54:00.862Z,69.37
2023-02-26T07:56:30.729Z,68.53
2023-02-26T07:59:00.516Z,68.79
2023-02-26T08:01:29.830Z,68.19
2023-02-26T08:03:59.103Z,67.57
2023-02-26T08:06:29.317Z,66.09
2023-02-26T08:08:58.578Z,66.40
2023-02-26T08:11:28.307Z,66.23
2023-02-26T08:13:57.713Z,66.32
2023-02-26T08:16:27.585Z,66.58
2023-02-26T08:18:57.010Z,66.13
2023-02-26T08:21:26.684Z,65.64
2023-02-26T08:23:56.046Z,65.91
2023-02-26T08:26:25.981Z,64.21
2023-02-26T08:28:55.753Z,63.70
2023-02-26T08:31:25.813Z,64.11
2023-02-26T08:33:55.855Z,63.49
2023-02-26T08:36:26.495Z,63.16
2023-02-26T08:38:56.058Z,62.94
2023-02-26T08:41:27.701Z,62.13
2023-02-26T08:43:57.585Z,62.39
2023-02-26T08:46:28.030Z,62.60
2023-02-26T08:48:57.646Z,60.94
2023-02-26T08:51:27.441Z,60.55
2023-02-26T08:53:56.906Z,58.65
2023-02-26T08:56:26.862Z,56.28
2023-02-26T08:58:56.650Z,55.38
2023-02-26T09:01:26.197Z,50.85
2023-02-26T09:03:55.807Z,50.27
2023-02-26T09:06:25.418Z,49.26
2023-02-26T09:08:55.386Z,49.84
2023-02-26T09:11:25.424Z,50.07
2023-02-26T09:13:54.833Z,47.83
2023-02-26T09:16:24.559Z,47.78
2023-02-26T09:18:54.166Z,47.26
2023-02-26T09:21:24.106Z,47.46
2023-02-26T09:23:53.335Z,48.04
2023-02-26T09:26:23.183Z,47.52
2023-02-26T09:28:52.701Z,46.22
2023-02-26T09:31:22.312Z,45.38
2023-02-26T09:33:51.642Z,45.36
2023-02-26T09:36:21.427Z,46.02
2023-02-26T09:38:50.638Z,46.04
2023-02-26T09:41:32.367Z,44.38
2023-02-26T09:44:25.606Z,45.64
2023-02-26T09:47:19.280Z,44.48
2023-02-26T09:50:15.967Z,45.94
2023-02-26T09:52:51.627Z,47.28
2023-02-26T09:55:26.668Z,45.42
2023-02-26T09:57:59.216Z,44.93
2023-02-26T10:00:35.462Z,44.35
2023-02-26T10:03:19.986Z,44.17
2023-02-26T10:05:58.127Z,45.22
2023-02-26T10:08:30.631Z,42.95
2023-02-26T10:11:15.285Z,44.23
2023-02-26T10:13:57.275Z,43.84
2023-02-26T10:16:23.710Z,43.12
2023-02-26T10:19:00.516Z,42.36
2023-02-26T10:21:41.741Z,41.59
2023-02-26T10:24:14.234Z,43.94
2023-02-26T10:26:46.594Z,41.30
2023-02-26T10:29:31.069Z,39.64
2023-02-26T10:32:16.147Z,38.38
2023-02-26T10:34:53.654Z,38.60
2023-02-26T10:37:44.415Z,40.25
2023-02-26T10:40:29.178Z,42.85
2023-02-26T10:43:07.471Z,43.13
2023-02-26T10:45:39.942Z,42.39
2023-02-26T10:48:15.425Z,42.45
2023-02-26T10:50:56.963Z,42.88
2023-02-26T10:53:28.461Z,39.96
2023-02-26T10:56:00.860Z,39.26
2023-02-26T10:58:30.075Z,40.91
2023-02-26T11:00:59.361Z,39.68
2023-02-26T11:03:34.821Z,40.03
2023-02-26T11:06:06.596Z,41.53
2023-02-26T11:08:39.044Z,42.12
2023-02-26T11:11:09.021Z,41.43
2023-02-26T11:13:40.700Z,41.27
2023-02-26T11:16:18.656Z,38.96
2023-02-26T11:18:54.021Z,39.56
2023-02-26T11:21:26.775Z,38.37
2023-02-26T11:23:59.771Z,38.94
2023-02-26T11:26:32.422Z,36.92
2023-02-26T11:29:01.777Z,39.01
2023-02-26T11:31:32.066Z,40.42
2023-02-26T11:34:04.774Z,41.87
2023-02-26T11:36:35.502Z,40.70
2023-02-26T11:39:08.010Z,40.38
2023-02-26T11:41:37.982Z,40.15
2023-02-26T11:44:09.635Z,39.46
2023-02-26T11:46:42.047Z,40.77
2023-02-26T11:49:14.076Z,41.71
2023-02-26T11:51:46.443Z,39.11
2023-02-26T11:54:24.340Z,39.45
2023-02-26T11:56:53.779Z,42.29
2023-02-26T11:59:24.921Z,41.51
2023-02-26T12:01:55.193Z,40.27
2023-02-26T12:04:27.892Z,40.12
2023-02-26T12:06:58.088Z,41.85
2023-02-26T12:09:28.180Z,41.73
2023-02-26T12:12:15.847Z,41.71
2023-02-26T12:14:53.913Z,40.83
2023-02-26T12:17:35.221Z,39.45
2023-02-26T12:20:15.299Z,38.55
2023-02-26T12:23:04.427Z,40.84
2023-02-26T12:26:10.195Z,42.57
2023-02-26T12:28:59.202Z,38.58
2023-02-26T12:31:47.268Z,40.38
2023-02-26T12:34:34.926Z,40.61
2023-02-26T12:37:29.284Z,42.41
2023-02-26T12:40:07.650Z,40.76
2023-02-26T12:43:10.480Z,40.50
2023-02-26T12:46:02.226Z,40.19
2023-02-26T12:48:46.508Z,40.38
2023-02-26T12:51:28.181Z,41.53
2023-02-26T12:54:28.029Z,40.63
2023-02-26T12:57:23.322Z,41.03
2023-02-26T13:00:15.113Z,42.42
2023-02-26T13:03:12.137Z,42.98
2023-02-26T13:06:02.669Z,40.20
2023-02-26T13:08:35.752Z,40.26
2023-02-26T13:11:08.184Z,41.22
2023-02-26T13:13:46.759Z,42.81
2023-02-26T13:16:34.601Z,42.71
2023-02-26T13:19:19.264Z,43.03
2023-02-26T13:21:54.313Z,41.51
2023-02-26T13:24:30.098Z,42.52
2023-02-26T13:27:00.371Z,43.65
2023-02-26T13:29:36.376Z,42.95
2023-02-26T13:32:13.245Z,43.64
2023-02-26T13:34:46.519Z,42.22
2023-02-26T13:37:30.466Z,42.94
2023-02-26T13:40:22.558Z,43.56
2023-02-26T13:43:14.505Z,44.17
2023-02-26T13:45:53.023Z,42.59
2023-02-26T13:48:25.473Z,43.75
2023-02-26T13:51:13.984Z,45.07
2023-02-26T13:53:49.848Z,44.79
2023-02-26T13:56:34.511Z,44.64
2023-02-26T13:59:20.550Z,44.20
2023-02-26T14:01:53.769Z,44.40
2023-02-26T14:04:26.483Z,45.79
2023-02-26T14:07:13.848Z,46.77
2023-02-26T14:10:02.015Z,47.39
2023-02-26T14:12:36.386Z,47.86
2023-02-26T14:15:20.564Z,47.79
2023-02-26T14:17:52.281Z,48.18
2023-02-26T14:20:27.650Z,48.05
2023-02-26T14:23:12.603Z,49.11
2023-02-26T14:25:45.038Z,48.54
2023-02-26T14:28:30.205Z,48.18
2023-02-26T14:31:22.377Z,46.30
2023-02-26T14:34:00.755Z,47.69
2023-02-26T14:36:49.727Z,47.54
2023-02-26T14:39:33.378Z,47.20
2023-02-26T14:42:05.999Z,47.35
2023-02-26T14:44:38.246Z,47.37
2023-02-26T14:47:07.994Z,47.39
2023-02-26T14:49:40.432Z,45.38
2023-02-26T14:52:30.817Z,45.65
2023-02-26T14:55:07.596Z,46.49
2023-02-26T14:58:05.693Z,46.78
2023-02-26T15:00:49.791Z,48.83
2023-02-26T15:03:25.158Z,47.23
2023-02-26T15:06:03.446Z,48.61
2023-02-26T15:08:35.904Z,48.55
2023-02-26T15:11:24.977Z,48.80
2023-02-26T15:14:00.528Z,48.14
2023-02-26T15:16:44.831Z,48.38
2023-02-26T15:19:36.888Z,48.09
2023-02-26T15:22:23.785Z,49.16
2023-02-26T15:24:53.624Z,48.75
2023-02-26T15:27:23.056Z,49.24
2023-02-26T15:29:53.161Z,48.71
2023-02-26T15:32:28.901Z,48.91
2023-02-26T15:35:01.490Z,48.33
2023-02-26T15:37:32.303Z,48.95
2023-02-26T15:40:04.991Z,49.10
2023-02-26T15:42:38.334Z,48.24
2023-02-26T15:45:16.951Z,49.46
2023-02-26T15:47:47.965Z,49.18
2023-02-26T15:50:18.459Z,49.05
2023-02-26T15:52:50.055Z,51.17
2023-02-26T15:55:19.498Z,50.62
2023-02-26T15:57:49.336Z,50.80
2023-02-26T16:00:27.657Z,51.01
2023-02-26T16:02:58.944Z,51.31
2023-02-26T16:05:29.351Z,52.48
2023-02-26T16:07:58.920Z,53.44
2023-02-26T16:10:31.311Z,52.23
2023-02-26T16:13:01.869Z,51.82
2023-02-26T16:15:39.109Z,52.08
2023-02-26T16:18:12.046Z,51.93
2023-02-26T16:20:44.305Z,53.34
2023-02-26T16:23:16.890Z,52.85
2023-02-26T16:25:57.952Z,54.39
2023-02-26T16:28:37.828Z,53.64
2023-02-26T16:31:12.647Z,54.56
2023-02-26T16:33:43.193Z,55.02
2023-02-26T16:36:16.381Z,53.47
2023-02-26T16:38:49.681Z,53.90
2023-02-26T16:41:22.231Z,53.87
2023-02-26T16:43:52.721Z,54.87
2023-02-26T16:46:33.732Z,55.59
2023-02-26T16:49:08.005Z,55.94
2023-02-26T16:51:39.876Z,57.15
2023-02-26T16:54:27.267Z,58.06
2023-02-26T16:57:09.085Z,58.00
2023-02-26T16:59:39.630Z,58.11
2023-02-26T17:02:22.434Z,58.12
2023-02-26T17:05:03.880Z,58.35
2023-02-26T17:07:36.203Z,58.34
2023-02-26T17:10:11.541Z,59.42
2023-02-26T17:12:50.226Z,60.12
2023-02-26T17:15:35.829Z,58.94
2023-02-26T17:18:05.543Z,60.92
2023-02-26T17:20:34.957Z,61.10
2023-02-26T17:23:06.156Z,61.35
2023-02-26T17:25:38.590Z,61.64
2023-02-26T17:28:07.424Z,61.92
2023-02-26T17:30:38.339Z,62.36
2023-02-26T17:33:10.907Z,62.80
2023-02-26T17:35:39.754Z,63.04
2023-02-26T17:38:13.344Z,63.65
2023-02-26T17:40:45.334Z,64.30
2023-02-26T17:43:15.007Z,64.45
2023-02-26T17:45:44.330Z,64.37
2023-02-26T17:48:16.304Z,65.59
2023-02-26T17:50:51.398Z,65.30
2023-02-26T17:53:22.437Z,65.61
2023-02-26T17:55:53.523Z,65.62
2023-02-26T17:58:32.145Z,66.42
2023-02-26T18:01:03.994Z,66.90
2023-02-26T18:03:33.643Z,67.48
2023-02-26T18:06:03.372Z,66.37
2023-02-26T18:08:34.734Z,66.69
2023-02-26T18:11:05.016Z,66.75
2023-02-26T18:13:34.478Z,67.32
2023-02-26T18:16:04.477Z,68.16
2023-02-26T18:18:34.007Z,68.33
2023-02-26T18:21:04.871Z,68.06
2023-02-26T18:23:34.199Z,68.73
2023-02-26T18:26:03.678Z,69.31
2023-02-26T18:28:33.436Z,69.06
2023-02-26T18:31:04.467Z,69.55
2023-02-26T18:33:33.798Z,70.30
2023-02-26T18:36:03.413Z,71.21
2023-02-26T18:38:32.716Z,71.62
2023-02-26T18:41:02.269Z,71.78
2023-02-26T18:43:31.607Z,71.47
2023-02-26T18:46:02.213Z,71.62
2023-02-26T18:48:32.113Z,71.45
2023-02-26T18:51:01.675Z,72.19
2023-02-26T18:53:30.910Z,72.15
2023-02-26T18:56:00.173Z,71.75
2023-02-26T18:58:29.531Z,72.55
2023-02-26T19:00:59.309Z,71.91
2023-02-26T19:03:29.011Z,70.97
2023-02-26T19:06:04.364Z,70.79
2023-02-26T19:08:34.025Z,70.44
2023-02-26T19:11:03.434Z,70.66
2023-02-26T19:13:34.615Z,71.59
2023-02-26T19:16:04.189Z,71.48
2023-02-26T19:18:33.840Z,71.30
2023-02-26T19:21:04.770Z,71.38
2023-02-26T19:23:34.093Z,71.88
2023-02-26T19:26:04.105Z,71.90
2023-02-26T19:28:33.893Z,72.22
2023-02-26T19:31:03.617Z,72.29
2023-02-26T19:33:33.119Z,72.19
2023-02-26T19:36:04.033Z,72.37
2023-02-26T19:38:33.586Z,73.70
2023-02-26T19:41:02.938Z,72.64
2023-02-26T19:43:32.461Z,72.64
2023-02-26T19:46:01.862Z,72.16
2023-02-26T19:48:31.977Z,72.18
2023-02-26T19:51:03.066Z,72.82
2023-02-26T19:53:32.358Z,73.07
2023-02-26T19:56:02.431Z,73.42
2023-02-26T19:58:32.350Z,72.94
2023-02-26T20:01:03.628Z,73.39
2023-02-26T20:03:33.249Z,73.77
2023-02-26T20:06:03.432Z,74.15
2023-02-26T20:08:32.828Z,74.05
2023-02-26T20:11:02.818Z,73.57
2023-02-26T20:13:34.077Z,73.86
2023-02-26T20:16:05.938Z,74.12
2023-02-26T20:18:36.013Z,74.26
2023-02-26T20:21:08.384Z,74.13
2023-02-26T20:23:37.793Z,74.62
2023-02-26T20:26:14.839Z,74.72
2023-02-26T20:28:44.294Z,74.68
2023-02-26T20:31:14.014Z,75.10
2023-02-26T20:33:43.530Z,75.15
2023-02-26T20:36:12.955Z,75.35
2023-02-26T20:38:43.031Z,76.03
2023-02-26T20:41:12.340Z,75.81
2023-02-26T20:43:41.809Z,76.60
2023-02-26T20:46:11.384Z,77.34
2023-02-26T20:48:42.641Z,77.23
2023-02-26T20:51:12.282Z,77.83
2023-02-26T20:53:42.637Z,78.30
2023-02-26T20:56:11.933Z,78.46
2023-02-26T20:58:41.318Z,79.88
2023-02-26T21:01:10.969Z,79.69
2023-02-26T21:03:40.673Z,79.55
2023-02-26T21:06:11.005Z,79.63
2023-02-26T21:08:40.692Z,80.39
2023-02-26T21:11:10.377Z,80.72
2023-02-26T21:13:39.913Z,80.69
2023-02-26T21:16:09.326Z,80.92
2023-02-26T21:18:38.870Z,80.93
2023-02-26T21:21:08.448Z,82.17
2023-02-26T21:23:38.037Z,82.28
2023-02-26T21:26:07.557Z,82.41
2023-02-26T21:28:36.833Z,82.37
2023-02-26T21:31:06.286Z,83.13
2023-02-26T21:33:35.498Z,82.94
2023-02-26T21:36:06.386Z,82.87
2023-02-26T21:38:36.097Z,82.51
2023-02-26T21:41:06.861Z,82.83
2023-02-26T21:43:36.178Z,82.42
2023-02-26T21:46:05.877Z,82.69
2023-02-26T21:48:35.715Z,82.85
2023-02-26T21:51:05.483Z,82.77
2023-02-26T21:53:34.764Z,82.82
2023-02-26T21:56:04.141Z,82.77
2023-02-26T21:58:37.975Z,83.63
2023-02-26T22:01:10.682Z,83.11
2023-02-26T22:03:40.449Z,83.00
2023-02-26T22:06:15.571Z,83.66
2023-02-26T22:08:47.116Z,83.17
2023-02-26T22:11:18.671Z,83.15
2023-02-26T22:13:52.604Z,83.12
2023-02-26T22:16:41.260Z,83.40
2023-02-26T22:19:11.996Z,84.16
2023-02-26T22:21:41.600Z,84.60
2023-02-26T22:24:11.315Z,83.86
2023-02-26T22:26:40.713Z,83.16
2023-02-26T22:29:15.082Z,82.84
2023-02-26T22:31:44.672Z,83.05
2023-02-26T22:34:16.154Z,82.84
2023-02-26T22:36:47.659Z,83.07
2023-02-26T22:39:17.246Z,82.85
2023-02-26T22:41:48.673Z,83.08
2023-02-26T22:44:18.412Z,83.32
2023-02-26T22:46:49.516Z,83.08
2023-02-26T22:49:19.759Z,83.17
2023-02-26T22:51:49.947Z,82.69
2023-02-26T22:54:19.174Z,82.42
2023-02-26T22:56:48.630Z,82.01
2023-02-26T22:59:18.257Z,82.27
2023-02-26T23:01:47.824Z,81.51
2023-02-26T23:04:17.315Z,81.46
2023-02-26T23:06:46.703Z,81.00
2023-02-26T23:09:16.003Z,80.83
2023-02-26T23:11:45.323Z,81.17
2023-02-26T23:14:14.618Z,80.88
2023-02-26T23:16:44.865Z,80.63
2023-02-26T23:19:14.163Z,80.67
2023-02-26T23:21:43.408Z,79.91
2023-02-26T23:24:12.754Z,79.80
2023-02-26T23:26:42.004Z,79.26
2023-02-26T23:29:11.566Z,79.29
2023-02-26T23:31:41.837Z,78.98
2023-02-26T23:34:11.190Z,78.20
2023-02-26T23:36:40.800Z,78.20
2023-02-26T23:39:10.180Z,77.46
2023-02-26T23:41:39.632Z,77.12
2023-02-26T23:44:09.005Z,78.41
2023-02-26T23:46:38.735Z,78.55
2023-02-26T23:49:09.517Z,78.60
2023-02-26T23:51:39.297Z,78.99
2023-02-26T23:54:08.507Z,79.51
2023-02-26T23:56:38.065Z,79.50
2023-02-26T23:59:07.681Z,80.01
